Time;durP1;ratioP1;P1;durP2;ratioP2;P2;SDS_P1;SDS_P2;PMS_P1;PMS_P2;Temp;Humidity;BMP_temperature;BMP_pressure;BME280_temperature;BME280_humidity;BME280_pressure;Samples;Min_cycle;Max_cycle;Signal;HPM_P1;HPM_P2
2023/08/26 00:00:47;;;;;;;112.77;30.13;;;;;;;;;;4928956;28;20406;-54
2023/08/26 00:03:13;;;;;;;276.08;34.22;;;;;;;;;;4929082;28;20697;-54
2023/08/26 00:05:39;;;;;;;245.75;33.70;;;;;;;;;;4930836;28;20034;-54
2023/08/26 00:08:04;;;;;;;192.68;32.40;;;;;;;;;;4929129;28;20094;-55
2023/08/26 00:10:29;;;;;;;234.13;32.85;;;;;;;;;;4928194;28;20512;-53
2023/08/26 00:12:55;;;;;;;206.77;32.40;;;;;;;;;;4930160;28;20102;-53
2023/08/26 00:15:20;;;;;;;298.13;36.67;;;;;;;;;;4931857;28;20369;-55
2023/08/26 00:17:46;;;;;;;142.77;31.48;;;;;;;;;;4929975;28;20091;-53
2023/08/26 00:20:11;;;;;;;294.75;34.38;;;;;;;;;;4926629;28;20032;-53
2023/08/26 00:22:36;;;;;;;170.80;31.43;;;;;;;;;;4928059;28;20031;-54
2023/08/26 00:25:02;;;;;;;196.02;32.08;;;;;;;;;;4929120;28;20027;-54
2023/08/26 00:27:27;;;;;;;303.15;36.05;;;;;;;;;;4927301;28;20031;-55
2023/08/26 00:29:52;;;;;;;218.75;32.00;;;;;;;;;;4931578;28;20036;-54
2023/08/26 00:32:17;;;;;;;332.73;38.03;;;;;;;;;;4929107;28;20417;-53
2023/08/26 00:34:43;;;;;;;263.43;32.60;;;;;;;;;;4931041;28;20298;-53
2023/08/26 00:37:09;;;;;;;186.00;31.75;;;;;;;;;;4929401;28;20279;-53
2023/08/26 00:39:34;;;;;;;192.07;32.60;;;;;;;;;;4929181;28;20027;-53
2023/08/26 00:41:59;;;;;;;271.50;34.75;;;;;;;;;;4926374;28;20047;-54
2023/08/26 00:44:25;;;;;;;304.65;33.83;;;;;;;;;;4927921;28;20201;-52
2023/08/26 00:46:50;;;;;;;182.45;30.65;;;;;;;;;;4931269;28;20520;-53
2023/08/26 00:49:17;;;;;;;331.17;36.07;;;;;;;;;;4926945;28;20027;-53
2023/08/26 00:51:42;;;;;;;178.98;31.55;;;;;;;;;;4928047;28;20295;-54
2023/08/26 00:54:07;;;;;;;197.73;32.57;;;;;;;;;;4930081;28;20030;-53
2023/08/26 00:56:33;;;;;;;272.35;34.40;;;;;;;;;;4929398;28;20370;-55
2023/08/26 00:58:58;;;;;;;177.35;32.13;;;;;;;;;;4930405;28;20051;-54
2023/08/26 01:01:24;;;;;;;313.05;38.28;;;;;;;;;;4928583;28;20071;-54
2023/08/26 01:03:49;;;;;;;255.00;36.33;;;;;;;;;;4931269;28;20442;-55
2023/08/26 01:06:15;;;;;;;180.03;35.13;;;;;;;;;;4929189;28;20047;-55
2023/08/26 01:08:40;;;;;;;200.32;34.75;;;;;;;;;;4929131;28;20287;-54
2023/08/26 01:11:16;;;;;;;259.05;37.08;;;;;;;;;;4930578;28;20892;-53
2023/08/26 01:13:49;;;;;;;178.30;34.55;;;;;;;;;;4929148;28;20036;-52
2023/08/26 01:16:15;;;;;;;227.32;35.55;;;;;;;;;;4927620;28;20324;-52
2023/08/26 01:18:40;;;;;;;190.88;34.25;;;;;;;;;;4927675;28;20024;-53
2023/08/26 01:21:06;;;;;;;212.07;35.15;;;;;;;;;;4929893;28;20123;-53
2023/08/26 01:23:34;;;;;;;395.55;41.70;;;;;;;;;;4926669;28;20406;-53
2023/08/26 01:25:59;;;;;;;184.48;35.00;;;;;;;;;;4928095;28;20034;-53
2023/08/26 01:28:25;;;;;;;298.33;39.60;;;;;;;;;;4928622;28;20028;-53
2023/08/26 01:30:50;;;;;;;245.52;36.60;;;;;;;;;;4927879;28;20785;-52
2023/08/26 01:33:19;;;;;;;160.48;34.20;;;;;;;;;;4925784;28;20040;-52
2023/08/26 01:35:47;;;;;;;158.27;31.42;;;;;;;;;;4927309;28;20070;-53
2023/08/26 01:38:14;;;;;;;218.70;34.40;;;;;;;;;;4928969;28;20025;-55
2023/08/26 01:40:40;;;;;;;171.40;32.83;;;;;;;;;;4930423;28;20042;-53
2023/08/26 01:43:06;;;;;;;162.50;31.48;;;;;;;;;;4929924;28;20027;-54
2023/08/26 01:45:31;;;;;;;357.70;40.60;;;;;;;;;;4927902;28;20039;-55
2023/08/26 01:47:56;;;;;;;175.13;33.83;;;;;;;;;;4928430;28;20058;-54
2023/08/26 01:50:22;;;;;;;307.17;39.63;;;;;;;;;;4927764;28;20039;-55
2023/08/26 01:52:47;;;;;;;252.45;37.35;;;;;;;;;;4930640;28;20027;-55
2023/08/26 01:55:13;;;;;;;186.77;34.53;;;;;;;;;;4928775;28;20023;-56
2023/08/26 01:57:38;;;;;;;187.27;35.87;;;;;;;;;;4927838;28;20268;-55
2023/08/26 02:00:05;;;;;;;298.70;37.38;;;;;;;;;;4927102;28;20263;-54
2023/08/26 02:02:30;;;;;;;337.95;41.15;;;;;;;;;;4926457;28;20102;-53
2023/08/26 02:04:55;;;;;;;176.10;34.85;;;;;;;;;;4929385;28;20035;-53
2023/08/26 02:07:20;;;;;;;344.27;41.13;;;;;;;;;;4927908;28;20046;-54
2023/08/26 02:09:46;;;;;;;175.93;37.33;;;;;;;;;;4929494;28;20260;-53
2023/08/26 02:12:11;;;;;;;201.57;39.23;;;;;;;;;;4928941;28;20043;-55
2023/08/26 02:14:36;;;;;;;230.17;39.33;;;;;;;;;;4926339;28;22009;-53
2023/08/26 02:17:01;;;;;;;187.52;39.28;;;;;;;;;;4926907;28;20040;-54
2023/08/26 02:19:27;;;;;;;340.58;43.95;;;;;;;;;;4928180;28;20031;-53
2023/08/26 02:21:52;;;;;;;222.87;39.10;;;;;;;;;;4930296;28;20457;-55
2023/08/26 02:24:17;;;;;;;186.65;37.97;;;;;;;;;;4930998;28;20496;-53
2023/08/26 02:26:42;;;;;;;214.97;36.97;;;;;;;;;;4928282;28;20039;-55
2023/08/26 02:29:07;;;;;;;259.30;39.53;;;;;;;;;;4931373;28;20270;-53
2023/08/26 02:31:33;;;;;;;351.50;42.67;;;;;;;;;;4928168;28;20054;-54
2023/08/26 02:33:58;;;;;;;214.00;38.30;;;;;;;;;;4931705;28;20757;-53
2023/08/26 02:36:23;;;;;;;342.17;42.63;;;;;;;;;;4928675;28;20837;-53
2023/08/26 02:38:48;;;;;;;152.77;34.60;;;;;;;;;;4929838;28;20748;-54
2023/08/26 02:41:14;;;;;;;186.85;37.17;;;;;;;;;;4929421;28;20028;-53
2023/08/26 02:43:39;;;;;;;238.57;37.23;;;;;;;;;;4929493;28;20019;-55
2023/08/26 02:46:04;;;;;;;194.70;36.35;;;;;;;;;;4930285;28;20172;-53
2023/08/26 02:48:30;;;;;;;366.13;42.87;;;;;;;;;;4929860;28;20503;-53
2023/08/26 02:50:56;;;;;;;177.38;35.72;;;;;;;;;;4930191;28;20370;-53
2023/08/26 02:53:21;;;;;;;214.18;36.70;;;;;;;;;;4929294;28;20202;-55
2023/08/26 02:55:46;;;;;;;177.65;37.00;;;;;;;;;;4930649;28;20105;-54
2023/08/26 02:58:11;;;;;;;206.97;37.83;;;;;;;;;;4931579;28;20383;-52
2023/08/26 03:00:37;;;;;;;338.70;41.50;;;;;;;;;;4927862;28;20454;-54
2023/08/26 03:03:02;;;;;;;161.40;36.43;;;;;;;;;;4929215;28;20345;-53
2023/08/26 03:05:27;;;;;;;278.05;40.35;;;;;;;;;;4929689;28;20761;-53
2023/08/26 03:07:52;;;;;;;163.40;36.85;;;;;;;;;;4937035;28;20023;-54
2023/08/26 03:10:18;;;;;;;216.03;38.13;;;;;;;;;;4930909;28;20023;-53
2023/08/26 03:12:43;;;;;;;221.47;40.17;;;;;;;;;;4929243;28;20043;-52
2023/08/26 03:15:08;;;;;;;216.97;39.63;;;;;;;;;;4931405;28;20285;-53
2023/08/26 03:17:33;;;;;;;369.67;45.15;;;;;;;;;;4930930;28;20728;-52
2023/08/26 03:19:59;;;;;;;228.00;37.57;;;;;;;;;;4930192;28;20343;-53
2023/08/26 03:22:24;;;;;;;285.03;42.43;;;;;;;;;;4928880;28;20035;-53
2023/08/26 03:24:49;;;;;;;144.20;37.53;;;;;;;;;;4931026;28;20267;-54
2023/08/26 03:27:14;;;;;;;139.63;36.83;;;;;;;;;;4930694;28;20125;-55
2023/08/26 03:29:40;;;;;;;394.33;44.93;;;;;;;;;;4927597;28;20271;-52
2023/08/26 03:32:06;;;;;;;198.88;39.20;;;;;;;;;;4933502;28;20040;-54
2023/08/26 03:34:31;;;;;;;308.73;42.70;;;;;;;;;;4929556;28;20089;-53
2023/08/26 03:36:56;;;;;;;236.52;40.55;;;;;;;;;;4930525;28;20091;-53
2023/08/26 03:39:21;;;;;;;208.53;39.40;;;;;;;;;;4931126;28;20107;-52
2023/08/26 03:41:47;;;;;;;178.80;39.20;;;;;;;;;;4927891;28;20111;-52
2023/08/26 03:44:12;;;;;;;314.63;42.70;;;;;;;;;;4929116;28;20379;-53
2023/08/26 03:46:37;;;;;;;335.00;43.55;;;;;;;;;;4927820;28;20086;-52
2023/08/26 03:49:02;;;;;;;218.60;40.53;;;;;;;;;;4929468;28;20440;-54
2023/08/26 03:51:28;;;;;;;356.27;46.25;;;;;;;;;;4927132;28;20127;-52
2023/08/26 03:53:53;;;;;;;206.07;41.20;;;;;;;;;;4929930;28;20423;-53
2023/08/26 03:56:18;;;;;;;194.93;40.88;;;;;;;;;;4930361;28;20275;-52
2023/08/26 03:58:44;;;;;;;248.53;41.70;;;;;;;;;;4928674;28;20031;-52
2023/08/26 04:01:09;;;;;;;211.48;41.05;;;;;;;;;;4928841;28;20030;-55
2023/08/26 04:03:34;;;;;;;288.75;43.85;;;;;;;;;;4928214;28;20270;-52
2023/08/26 04:06:00;;;;;;;299.73;43.22;;;;;;;;;;4927838;28;20088;-51
2023/08/26 04:08:25;;;;;;;251.23;40.90;;;;;;;;;;4927916;28;20030;-51
2023/08/26 04:10:55;;;;;;;179.40;40.35;;;;;;;;;;4928223;28;20043;-52
2023/08/26 04:13:23;;;;;;;243.23;41.90;;;;;;;;;;4930522;28;20513;-52
2023/08/26 04:15:48;;;;;;;155.00;39.60;;;;;;;;;;4925811;28;20046;-54
2023/08/26 04:18:14;;;;;;;204.82;40.28;;;;;;;;;;4929982;28;20409;-52
2023/08/26 04:20:39;;;;;;;350.98;47.13;;;;;;;;;;4926515;28;20036;-54
2023/08/26 04:23:05;;;;;;;184.20;40.47;;;;;;;;;;4928198;28;20058;-52
2023/08/26 04:25:30;;;;;;;333.40;45.78;;;;;;;;;;4926476;28;20350;-52
2023/08/26 04:27:55;;;;;;;256.80;42.58;;;;;;;;;;4926670;28;20027;-52
2023/08/26 04:30:21;;;;;;;234.48;42.30;;;;;;;;;;4927311;28;20028;-53
2023/08/26 04:32:47;;;;;;;200.50;42.73;;;;;;;;;;4926702;28;20026;-52
2023/08/26 04:35:13;;;;;;;298.65;44.17;;;;;;;;;;4926849;28;20852;-53
2023/08/26 04:37:39;;;;;;;315.75;45.28;;;;;;;;;;4927718;28;20028;-51
2023/08/26 04:40:12;;;;;;;227.80;40.47;;;;;;;;;;4927243;28;20030;-53
2023/08/26 04:42:37;;;;;;;333.55;45.13;;;;;;;;;;4928189;28;20091;-53
2023/08/26 04:45:03;;;;;;;216.80;39.70;;;;;;;;;;4931259;28;20750;-52
2023/08/26 04:47:29;;;;;;;238.13;41.47;;;;;;;;;;4927356;28;20274;-52
2023/08/26 04:49:54;;;;;;;242.45;41.22;;;;;;;;;;4928095;28;20032;-54
2023/08/26 04:52:19;;;;;;;161.43;39.70;;;;;;;;;;4928158;28;20040;-52
2023/08/26 04:54:44;;;;;;;359.83;46.50;;;;;;;;;;4927400;28;20034;-52
2023/08/26 04:57:09;;;;;;;264.70;42.35;;;;;;;;;;4929050;28;20266;-52
2023/08/26 04:59:36;;;;;;;377.90;48.20;;;;;;;;;;4928628;28;20031;-54
2023/08/26 05:02:02;;;;;;;271.00;41.05;;;;;;;;;;4929379;28;20290;-53
2023/08/26 05:04:27;;;;;;;229.10;39.88;;;;;;;;;;4927819;28;20035;-54
2023/08/26 05:06:54;;;;;;;191.53;39.23;;;;;;;;;;4930107;28;20461;-52
2023/08/26 05:09:19;;;;;;;240.18;41.42;;;;;;;;;;4929624;28;20032;-53
2023/08/26 05:11:44;;;;;;;277.10;41.97;;;;;;;;;;4927090;28;20093;-53
2023/08/26 05:14:09;;;;;;;231.35;41.45;;;;;;;;;;4929296;28;20035;-52
2023/08/26 05:16:35;;;;;;;388.40;47.30;;;;;;;;;;4925404;28;20539;-52
2023/08/26 05:19:00;;;;;;;223.18;40.20;;;;;;;;;;4928158;28;20352;-53
2023/08/26 05:21:25;;;;;;;208.47;40.90;;;;;;;;;;4927277;28;20028;-54
2023/08/26 05:23:50;;;;;;;250.97;37.37;;;;;;;;;;4926210;28;20333;-52
2023/08/26 05:26:16;;;;;;;249.90;37.70;;;;;;;;;;4927935;28;20099;-52
2023/08/26 05:28:41;;;;;;;302.27;32.22;;;;;;;;;;4927128;28;20229;-52
2023/08/26 05:31:06;;;;;;;234.13;28.53;;;;;;;;;;4927610;28;20043;-53
2023/08/26 05:33:32;;;;;;;283.52;30.30;;;;;;;;;;4927835;28;20032;-53
2023/08/26 05:35:57;;;;;;;158.57;24.33;;;;;;;;;;4928380;28;20051;-54
2023/08/26 05:38:22;;;;;;;225.20;25.83;;;;;;;;;;4927438;28;20422;-53
2023/08/26 05:40:47;;;;;;;179.63;25.83;;;;;;;;;;4926580;28;20057;-54
2023/08/26 05:43:13;;;;;;;184.97;28.17;;;;;;;;;;4929055;28;20828;-54
2023/08/26 05:45:38;;;;;;;368.33;29.53;;;;;;;;;;4924677;28;20291;-53
2023/08/26 05:48:03;;;;;;;180.70;22.93;;;;;;;;;;4926430;28;20051;-52
2023/08/26 05:50:29;;;;;;;177.05;22.38;;;;;;;;;;4925747;28;20623;-51
2023/08/26 05:52:54;;;;;;;229.83;24.27;;;;;;;;;;4933410;28;20024;-53
2023/08/26 05:55:19;;;;;;;187.13;24.88;;;;;;;;;;4930164;28;20061;-51
2023/08/26 05:57:44;;;;;;;283.80;27.53;;;;;;;;;;4928757;28;20026;-54
2023/08/26 06:00:10;;;;;;;258.13;26.10;;;;;;;;;;4930248;28;20502;-52
2023/08/26 06:02:35;;;;;;;351.25;31.15;;;;;;;;;;4930560;28;20900;-52
2023/08/26 06:05:00;;;;;;;181.33;25.13;;;;;;;;;;4932306;28;20114;-52
2023/08/26 06:07:25;;;;;;;198.47;26.63;;;;;;;;;;4929599;28;20029;-52
2023/08/26 06:09:51;;;;;;;215.80;25.83;;;;;;;;;;4932079;28;20804;-53
2023/08/26 06:12:16;;;;;;;166.03;25.30;;;;;;;;;;4930663;28;20389;-53
2023/08/26 06:14:41;;;;;;;313.37;31.57;;;;;;;;;;4931219;28;20267;-53
2023/08/26 06:17:06;;;;;;;195.37;27.37;;;;;;;;;;4929246;28;20050;-53
2023/08/26 06:19:32;;;;;;;170.97;27.57;;;;;;;;;;4930690;28;20046;-53
2023/08/26 06:21:57;;;;;;;163.15;26.50;;;;;;;;;;4929839;28;20027;-54
2023/08/26 06:24:22;;;;;;;197.60;27.97;;;;;;;;;;4932601;28;20433;-53
2023/08/26 06:26:47;;;;;;;323.40;32.80;;;;;;;;;;4931609;28;20271;-53
2023/08/26 06:29:15;;;;;;;233.80;28.67;;;;;;;;;;4933183;28;20083;-55
2023/08/26 06:31:42;;;;;;;338.80;34.60;;;;;;;;;;4929738;28;20369;-55
2023/08/26 06:34:07;;;;;;;180.82;28.98;;;;;;;;;;4931307;28;20095;-54
2023/08/26 06:36:32;;;;;;;197.20;27.58;;;;;;;;;;4930818;28;20047;-53
2023/08/26 06:38:57;;;;;;;181.80;24.73;;;;;;;;;;4923942;28;20055;-54
2023/08/26 06:41:22;;;;;;;162.10;23.47;;;;;;;;;;4930155;28;20442;-55
2023/08/26 06:43:48;;;;;;;284.60;28.67;;;;;;;;;;4930259;28;20065;-54
2023/08/26 06:46:13;;;;;;;193.73;23.77;;;;;;;;;;4932258;28;20500;-52
2023/08/26 06:48:39;;;;;;;305.05;28.50;;;;;;;;;;4929704;28;20042;-55
2023/08/26 06:51:04;;;;;;;189.05;20.38;;;;;;;;;;4928887;28;20042;-54
2023/08/26 06:53:29;;;;;;;162.33;20.37;;;;;;;;;;4931051;28;20328;-52
2023/08/26 06:55:55;;;;;;;164.53;17.63;;;;;;;;;;4930387;28;20047;-54
2023/08/26 06:58:20;;;;;;;168.80;18.27;;;;;;;;;;4929726;28;20291;-56
2023/08/26 07:00:46;;;;;;;402.45;31.42;;;;;;;;;;4928815;28;20295;-56
2023/08/26 07:03:11;;;;;;;125.30;15.85;;;;;;;;;;4930593;28;20023;-56
2023/08/26 07:05:38;;;;;;;245.27;19.67;;;;;;;;;;4926835;28;20036;-55
2023/08/26 07:08:03;;;;;;;239.90;18.55;;;;;;;;;;4930131;28;20339;-55
2023/08/26 07:10:29;;;;;;;220.50;19.60;;;;;;;;;;4928760;28;20040;-56
2023/08/26 07:12:54;;;;;;;121.83;16.30;;;;;;;;;;4928114;28;20020;-54
2023/08/26 07:15:19;;;;;;;222.00;20.77;;;;;;;;;;4928493;28;20283;-53
2023/08/26 07:17:44;;;;;;;287.60;23.63;;;;;;;;;;4928464;28;21035;-54
2023/08/26 07:20:10;;;;;;;213.97;18.97;;;;;;;;;;4929565;28;20366;-54
2023/08/26 07:22:35;;;;;;;254.70;21.50;;;;;;;;;;4929198;28;20327;-54
2023/08/26 07:25:00;;;;;;;167.90;19.40;;;;;;;;;;4929645;28;20074;-55
2023/08/26 07:27:26;;;;;;;179.67;19.13;;;;;;;;;;4927930;28;20048;-55
2023/08/26 07:29:51;;;;;;;403.03;26.37;;;;;;;;;;4929010;28;20262;-55
2023/08/26 07:32:16;;;;;;;208.60;52.30;;;;;;;;;;4929350;28;20865;-54
2023/08/26 07:34:41;;;;;;;278.10;19.65;;;;;;;;;;4929070;28;20497;-54
2023/08/26 07:37:07;;;;;;;217.03;15.57;;;;;;;;;;4926878;28;20036;-55
2023/08/26 07:39:32;;;;;;;171.77;14.03;;;;;;;;;;4928604;28;20095;-54
2023/08/26 07:41:57;;;;;;;148.97;12.70;;;;;;;;;;4928699;28;20283;-54
2023/08/26 07:44:22;;;;;;;194.20;12.93;;;;;;;;;;4926783;28;20307;-54
2023/08/26 07:46:50;;;;;;;326.60;17.40;;;;;;;;;;4928452;28;20118;-55
2023/08/26 07:49:15;;;;;;;187.85;12.15;;;;;;;;;;4929187;28;20042;-56
2023/08/26 07:51:40;;;;;;;261.53;14.73;;;;;;;;;;4928671;28;20047;-55
2023/08/26 07:54:05;;;;;;;182.90;11.43;;;;;;;;;;4929948;28;20099;-53
2023/08/26 07:56:30;;;;;;;185.93;11.37;;;;;;;;;;4927880;28;20036;-54
2023/08/26 07:58:56;;;;;;;185.20;10.90;;;;;;;;;;4927333;28;20082;-55
2023/08/26 08:01:21;;;;;;;167.88;9.38;;;;;;;;;;4929783;28;20070;-56
2023/08/26 08:03:46;;;;;;;226.53;11.07;;;;;;;;;;4932035;28;20042;-54
2023/08/26 08:06:12;;;;;;;246.70;21.02;;;;;;;;;;4930571;28;20267;-56
2023/08/26 08:08:37;;;;;;;249.17;73.83;;;;;;;;;;4928471;28;20027;-54
2023/08/26 08:11:03;;;;;;;138.55;10.52;;;;;;;;;;4926574;28;20039;-55
2023/08/26 08:13:28;;;;;;;173.60;8.82;;;;;;;;;;4930402;28;20063;-54
2023/08/26 08:15:54;;;;;;;352.50;45.20;;;;;;;;;;4926625;28;20110;-56
2023/08/26 08:18:19;;;;;;;251.53;88.90;;;;;;;;;;4928895;28;20027;-54
2023/08/26 08:20:44;;;;;;;194.27;9.65;;;;;;;;;;4927239;28;20211;-54
2023/08/26 08:23:09;;;;;;;210.37;24.40;;;;;;;;;;4928016;28;20020;-54
2023/08/26 08:25:35;;;;;;;289.07;111.17;;;;;;;;;;4927852;28;20740;-53
2023/08/26 08:28:00;;;;;;;329.53;183.30;;;;;;;;;;4928922;28;20504;-55
2023/08/26 08:30:26;;;;;;;309.88;73.32;;;;;;;;;;4928319;28;20387;-54
2023/08/26 08:32:51;;;;;;;273.67;66.53;;;;;;;;;;4927665;28;20126;-57
2023/08/26 08:35:16;;;;;;;148.40;8.20;;;;;;;;;;4928236;28;20291;-56
2023/08/26 08:37:41;;;;;;;294.33;87.30;;;;;;;;;;4927729;28;20157;-55
2023/08/26 08:40:07;;;;;;;187.45;9.27;;;;;;;;;;4927788;28;20398;-54
2023/08/26 08:42:34;;;;;;;198.55;24.33;;;;;;;;;;4927521;28;20118;-55
2023/08/26 08:45:00;;;;;;;247.48;85.90;;;;;;;;;;4924285;28;21731;-56
2023/08/26 08:47:28;;;;;;;178.35;11.18;;;;;;;;;;4928299;28;20036;-54
2023/08/26 08:49:54;;;;;;;276.45;14.32;;;;;;;;;;4927475;28;20031;-53
2023/08/26 08:52:21;;;;;;;227.85;13.77;;;;;;;;;;4927090;28;20444;-54
2023/08/26 08:54:47;;;;;;;288.35;19.23;;;;;;;;;;4926045;28;20063;-54
2023/08/26 08:57:13;;;;;;;153.18;12.10;;;;;;;;;;4929307;28;20162;-54
2023/08/26 08:59:38;;;;;;;214.45;12.68;;;;;;;;;;4927310;28;20066;-54
2023/08/26 09:02:04;;;;;;;245.43;110.93;;;;;;;;;;4924658;28;20027;-53
2023/08/26 09:04:29;;;;;;;148.88;39.30;;;;;;;;;;4927599;28;20852;-55
2023/08/26 09:06:55;;;;;;;348.30;17.90;;;;;;;;;;4925542;28;20046;-53
2023/08/26 09:09:20;;;;;;;277.73;112.28;;;;;;;;;;4928229;28;20054;-55
2023/08/26 09:11:46;;;;;;;288.20;62.22;;;;;;;;;;4927057;28;20039;-54
2023/08/26 09:14:12;;;;;;;306.05;99.10;;;;;;;;;;4926239;28;20359;-54
2023/08/26 09:16:38;;;;;;;335.07;195.47;;;;;;;;;;4927868;28;20044;-53
2023/08/26 09:19:07;;;;;;;174.52;46.92;;;;;;;;;;4926374;28;20039;-55
2023/08/26 09:21:32;;;;;;;263.23;93.25;;;;;;;;;;4927253;28;20118;-54
2023/08/26 09:23:57;;;;;;;276.00;12.73;;;;;;;;;;4927142;28;20111;-55
2023/08/26 09:26:23;;;;;;;268.52;127.38;;;;;;;;;;4926628;28;20035;-52
2023/08/26 09:28:50;;;;;;;428.00;197.70;;;;;;;;;;4931532;28;20098;-55
2023/08/26 09:31:16;;;;;;;409.05;305.23;;;;;;;;;;4930880;28;20047;-54
2023/08/26 09:33:41;;;;;;;204.68;63.28;;;;;;;;;;4933037;28;20020;-54
2023/08/26 09:36:06;;;;;;;261.05;39.20;;;;;;;;;;4932898;28;20140;-55
2023/08/26 09:38:47;;;;;;;342.10;199.73;;;;;;;;;;4933030;28;20014;-54
2023/08/26 09:41:12;;;;;;;397.90;223.63;;;;;;;;;;4932300;28;20506;-57
2023/08/26 09:43:42;;;;;;;370.92;238.80;;;;;;;;;;4932559;28;20062;-55
2023/08/26 09:46:07;;;;;;;151.55;8.95;;;;;;;;;;4928891;28;20040;-53
2023/08/26 09:48:34;;;;;;;300.88;70.90;;;;;;;;;;4933854;28;20038;-52
2023/08/26 09:50:59;;;;;;;340.90;111.28;;;;;;;;;;4932343;28;20766;-55
2023/08/26 09:53:31;;;;;;;268.17;11.40;;;;;;;;;;4925937;28;20107;-58
2023/08/26 09:55:56;;;;;;;584.35;176.32;;;;;;;;;;4924726;28;20638;-58
2023/08/26 09:58:22;;;;;;;361.50;155.98;;;;;;;;;;4928240;28;20486;-56
2023/08/26 10:00:50;;;;;;;255.18;12.38;;;;;;;;;;4925667;28;20050;-57
2023/08/26 10:03:18;;;;;;;310.38;16.88;;;;;;;;;;4929378;28;20035;-57
2023/08/26 10:05:44;;;;;;;338.95;160.52;;;;;;;;;;4925339;28;20130;-60
2023/08/26 10:08:10;;;;;;;274.58;93.28;;;;;;;;;;4935504;28;20070;-58
2023/08/26 10:10:56;;;;;;;296.77;58.83;;;;;;;;;;4929160;28;20035;-57
2023/08/26 10:13:25;;;;;;;319.83;145.93;;;;;;;;;;4928081;28;20044;-58
2023/08/26 10:15:51;;;;;;;334.48;42.88;;;;;;;;;;4933478;28;20601;-58
2023/08/26 10:18:35;;;;;;;295.77;126.18;;;;;;;;;;4929265;28;20034;-58
2023/08/26 10:21:03;;;;;;;459.88;87.35;;;;;;;;;;4924867;28;20036;-58
2023/08/26 10:23:29;;;;;;;536.75;373.13;;;;;;;;;;4927281;28;20059;-58
2023/08/26 10:25:55;;;;;;;608.10;250.48;;;;;;;;;;4927384;28;20131;-56
2023/08/26 10:28:21;;;;;;;506.70;339.30;;;;;;;;;;4929123;28;20488;-58
2023/08/26 10:30:46;;;;;;;563.25;311.85;;;;;;;;;;4926277;28;22397;-56
2023/08/26 10:33:12;;;;;;;447.70;233.17;;;;;;;;;;4928152;28;20023;-58
2023/08/26 10:35:39;;;;;;;333.83;119.80;;;;;;;;;;4926758;28;20326;-58
2023/08/26 10:38:14;;;;;;;490.88;250.90;;;;;;;;;;4928413;28;20368;-58
2023/08/26 10:40:39;;;;;;;530.45;314.02;;;;;;;;;;4926917;28;20032;-58
2023/08/26 10:43:07;;;;;;;528.10;218.68;;;;;;;;;;4925042;28;20034;-58
2023/08/26 10:45:32;;;;;;;359.08;147.50;;;;;;;;;;4927749;28;20467;-58
2023/08/26 10:47:59;;;;;;;603.13;187.98;;;;;;;;;;4927750;28;20517;-59
2023/08/26 10:50:25;;;;;;;254.68;25.52;;;;;;;;;;4929707;28;20031;-57
2023/08/26 10:52:53;;;;;;;331.55;108.93;;;;;;;;;;4926965;28;20024;-57
2023/08/26 10:55:18;;;;;;;446.00;155.05;;;;;;;;;;4926084;28;20075;-58
2023/08/26 10:58:02;;;;;;;392.42;109.75;;;;;;;;;;4926808;28;20441;-57
2023/08/26 11:00:28;;;;;;;386.33;169.93;;;;;;;;;;4926503;28;20130;-57
2023/08/26 11:02:54;;;;;;;413.13;110.85;;;;;;;;;;4926159;28;20050;-56
2023/08/26 11:05:20;;;;;;;435.38;130.98;;;;;;;;;;4924296;28;20042;-56
2023/08/26 11:07:45;;;;;;;345.00;40.53;;;;;;;;;;4923295;28;20036;-56
2023/08/26 11:10:26;;;;;;;462.70;228.67;;;;;;;;;;4925631;28;20030;-56
2023/08/26 11:12:51;;;;;;;498.98;170.55;;;;;;;;;;4925334;28;20008;-55
2023/08/26 11:15:16;;;;;;;292.80;73.93;;;;;;;;;;4926362;28;20023;-55
2023/08/26 11:17:42;;;;;;;239.10;34.03;;;;;;;;;;4926575;28;20466;-55
2023/08/26 11:20:08;;;;;;;616.15;163.15;;;;;;;;;;4925710;28;20374;-56
2023/08/26 11:22:34;;;;;;;331.35;108.80;;;;;;;;;;4926560;28;20074;-55
2023/08/26 11:24:59;;;;;;;537.03;212.73;;;;;;;;;;4926021;28;20675;-56
2023/08/26 11:27:24;;;;;;;470.93;226.20;;;;;;;;;;4924721;28;20032;-56
2023/08/26 11:29:49;;;;;;;275.47;22.70;;;;;;;;;;4924143;28;20726;-56
2023/08/26 11:32:15;;;;;;;494.40;323.80;;;;;;;;;;4925430;28;20040;-55
2023/08/26 11:34:40;;;;;;;464.73;204.80;;;;;;;;;;4925807;28;20035;-56
2023/08/26 11:37:05;;;;;;;604.10;279.85;;;;;;;;;;4927278;28;20039;-55
2023/08/26 11:39:31;;;;;;;366.13;87.88;;;;;;;;;;4927038;28;20031;-55
2023/08/26 11:41:57;;;;;;;517.45;102.57;;;;;;;;;;4925024;28;20255;-54
2023/08/26 11:44:22;;;;;;;318.92;108.03;;;;;;;;;;4927029;28;20122;-57
2023/08/26 11:46:48;;;;;;;458.85;290.13;;;;;;;;;;4925513;28;20495;-55
2023/08/26 11:49:14;;;;;;;531.43;347.77;;;;;;;;;;4924527;28;20028;-54
2023/08/26 11:51:40;;;;;;;346.38;67.35;;;;;;;;;;4927025;28;20776;-57
2023/08/26 11:54:06;;;;;;;510.48;248.15;;;;;;;;;;4925407;28;20055;-57
2023/08/26 11:56:31;;;;;;;519.90;326.23;;;;;;;;;;4924363;28;20414;-56
2023/08/26 11:58:57;;;;;;;467.77;196.25;;;;;;;;;;4925673;28;20042;-56
2023/08/26 12:01:22;;;;;;;452.57;259.90;;;;;;;;;;4925765;28;20051;-55
2023/08/26 12:03:48;;;;;;;352.67;107.70;;;;;;;;;;4923907;28;20878;-56
2023/08/26 12:06:14;;;;;;;235.93;16.15;;;;;;;;;;4925832;28;20058;-56
2023/08/26 12:08:40;;;;;;;381.60;229.85;;;;;;;;;;4925875;28;20852;-58
2023/08/26 12:11:05;;;;;;;580.45;326.67;;;;;;;;;;4925838;28;20031;-57
2023/08/26 12:13:38;;;;;;;384.30;170.03;;;;;;;;;;4926272;28;20023;-56
2023/08/26 12:16:04;;;;;;;314.38;22.85;;;;;;;;;;4924010;28;20347;-55
2023/08/26 12:18:29;;;;;;;423.38;210.65;;;;;;;;;;4926632;28;20031;-56
2023/08/26 12:20:54;;;;;;;316.67;145.23;;;;;;;;;;4925947;28;20521;-54
2023/08/26 12:23:21;;;;;;;419.63;249.10;;;;;;;;;;4926537;28;20397;-55
2023/08/26 12:25:46;;;;;;;446.05;296.58;;;;;;;;;;4926475;28;20524;-55
2023/08/26 12:28:24;;;;;;;326.33;75.53;;;;;;;;;;4925468;28;21524;-55
2023/08/26 12:30:49;;;;;;;435.38;287.48;;;;;;;;;;4924470;28;20115;-53
2023/08/26 12:33:16;;;;;;;514.20;225.15;;;;;;;;;;4924473;28;20253;-56
2023/08/26 12:35:41;;;;;;;393.75;245.50;;;;;;;;;;4924215;28;20047;-54
2023/08/26 12:38:07;;;;;;;477.03;136.13;;;;;;;;;;4924804;28;20023;-53
2023/08/26 12:40:33;;;;;;;347.33;132.68;;;;;;;;;;4923399;28;20044;-57
2023/08/26 12:42:59;;;;;;;561.17;253.88;;;;;;;;;;4923789;28;20035;-56
2023/08/26 12:45:24;;;;;;;382.23;55.30;;;;;;;;;;4924220;28;20118;-56
2023/08/26 12:47:49;;;;;;;396.55;192.13;;;;;;;;;;4925444;28;20051;-54
2023/08/26 12:50:15;;;;;;;402.88;126.32;;;;;;;;;;4921983;28;20494;-55
2023/08/26 12:52:40;;;;;;;589.23;312.63;;;;;;;;;;4923893;28;20451;-54
2023/08/26 12:55:06;;;;;;;359.35;39.42;;;;;;;;;;4922579;28;20038;-54
2023/08/26 12:57:31;;;;;;;414.90;208.93;;;;;;;;;;4925914;28;20023;-54
2023/08/26 12:59:56;;;;;;;432.00;131.20;;;;;;;;;;4923070;28;20231;-55
2023/08/26 13:02:21;;;;;;;524.93;392.53;;;;;;;;;;4924482;28;20284;-57
2023/08/26 13:04:47;;;;;;;413.27;216.93;;;;;;;;;;4926390;28;20326;-56
2023/08/26 13:07:12;;;;;;;426.05;44.88;;;;;;;;;;4923695;28;20478;-57
2023/08/26 13:09:38;;;;;;;329.13;64.70;;;;;;;;;;4927778;28;20043;-56
2023/08/26 13:12:03;;;;;;;623.92;339.35;;;;;;;;;;4924359;28;20035;-56
2023/08/26 13:14:28;;;;;;;312.60;38.42;;;;;;;;;;4932682;28;20118;-54
2023/08/26 13:16:54;;;;;;;520.23;360.60;;;;;;;;;;4927362;28;20102;-54
2023/08/26 13:19:20;;;;;;;290.85;63.03;;;;;;;;;;4925622;28;20028;-55
2023/08/26 13:21:45;;;;;;;418.80;168.40;;;;;;;;;;4925428;28;20402;-54
2023/08/26 13:24:10;;;;;;;692.72;353.73;;;;;;;;;;4925555;28;20028;-57
2023/08/26 13:26:36;;;;;;;558.17;368.37;;;;;;;;;;4926265;28;20386;-56
2023/08/26 13:29:01;;;;;;;595.40;316.23;;;;;;;;;;4926662;28;20306;-55
2023/08/26 13:31:26;;;;;;;270.50;13.30;;;;;;;;;;4926722;28;20267;-56
2023/08/26 13:33:51;;;;;;;416.57;191.07;;;;;;;;;;4927684;28;20016;-56
2023/08/26 13:36:17;;;;;;;492.17;312.57;;;;;;;;;;4924240;28;20043;-57
2023/08/26 13:38:42;;;;;;;402.73;133.77;;;;;;;;;;4925468;28;20016;-55
2023/08/26 13:41:07;;;;;;;537.63;213.07;;;;;;;;;;4924525;28;20119;-55
2023/08/26 13:43:33;;;;;;;458.60;234.43;;;;;;;;;;4926897;28;20429;-57
2023/08/26 13:45:58;;;;;;;485.70;312.63;;;;;;;;;;4924631;28;20230;-54
2023/08/26 13:48:23;;;;;;;276.97;26.03;;;;;;;;;;4928082;28;20270;-54
2023/08/26 13:50:48;;;;;;;441.17;318.20;;;;;;;;;;4927159;28;20775;-53
2023/08/26 13:53:14;;;;;;;478.83;66.60;;;;;;;;;;4924180;28;20286;-53